Time;durP1;ratioP1;P1;durP2;ratioP2;P2;SDS_P1;SDS_P2;PMS_P1;PMS_P2;Temp;Humidity;BMP_temperature;BMP_pressure;BME280_temperature;BME280_humidity;BME280_pressure;Samples;Min_cycle;Max_cycle;Signal;HPM_P1;HPM_P2
2022/07/21 00:01:05;;;;;;;2.80;1.95;;;24.40;69.10;;;;;;5043376;28;20094;-69
2022/07/21 00:03:30;;;;;;;3.22;2.03;;;24.40;69.00;;;;;;5040458;28;20095;-68
2022/07/21 00:05:56;;;;;;;3.42;2.97;;;24.40;68.90;;;;;;5039740;28;20043;-69
2022/07/21 00:08:22;;;;;;;4.20;2.60;;;24.40;68.90;;;;;;5034574;28;20033;-70
2022/07/21 00:10:48;;;;;;;2.25;2.05;;;24.40;69.10;;;;;;5038743;28;20037;-69
2022/07/21 00:13:14;;;;;;;4.22;2.50;;;24.30;69.30;;;;;;5039354;28;20048;-63
2022/07/21 00:15:39;;;;;;;3.83;2.88;;;24.40;69.50;;;;;;5041372;28;20556;-62
2022/07/21 00:18:06;;;;;;;2.03;1.85;;;24.40;69.70;;;;;;5026443;28;20428;-63
2022/07/21 00:20:32;;;;;;;3.67;3.03;;;24.40;69.90;;;;;;5051334;28;20036;-62
2022/07/21 00:22:58;;;;;;;2.17;1.98;;;24.20;70.00;;;;;;5049427;28;20388;-62
2022/07/21 00:25:24;;;;;;;4.00;2.90;;;24.20;70.20;;;;;;5045670;28;20032;-63
2022/07/21 00:27:50;;;;;;;3.22;2.13;;;24.20;70.30;;;;;;5042560;28;20052;-62
2022/07/21 00:30:15;;;;;;;3.08;2.63;;;24.20;70.60;;;;;;5041148;28;20491;-63
2022/07/21 00:32:41;;;;;;;2.45;2.25;;;24.10;70.60;;;;;;5042814;28;20120;-63
2022/07/21 00:35:09;;;;;;;4.00;2.47;;;24.10;71.00;;;;;;5045605;28;20033;-62
2022/07/21 00:37:36;;;;;;;2.72;1.88;;;24.10;71.20;;;;;;5055239;28;20026;-63
2022/07/21 00:40:02;;;;;;;4.32;3.30;;;24.10;71.10;;;;;;5041937;28;20032;-63
2022/07/21 00:42:30;;;;;;;1.70;1.60;;;24.10;71.10;;;;;;5046290;28;20043;-62
2022/07/21 00:44:56;;;;;;;2.45;2.25;;;24.10;70.90;;;;;;5045664;28;20123;-63
2022/07/21 00:47:23;;;;;;;1.42;1.33;;;24.20;70.90;;;;;;5045631;28;20431;-63
2022/07/21 00:49:49;;;;;;;3.20;2.20;;;24.20;71.30;;;;;;5048280;28;20041;-63
2022/07/21 00:52:16;;;;;;;2.50;2.00;;;24.20;71.00;;;;;;5051504;28;20032;-63
2022/07/21 00:54:42;;;;;;;3.10;2.05;;;24.20;70.70;;;;;;5054228;28;20025;-63
2022/07/21 00:57:08;;;;;;;1.85;1.75;;;24.20;71.00;;;;;;5056573;28;20020;-63
2022/07/21 00:59:34;;;;;;;2.55;2.00;;;24.10;71.20;;;;;;5060056;28;20127;-63
2022/07/21 01:02:00;;;;;;;2.85;2.15;;;24.10;71.30;;;;;;5050126;28;20111;-63
2022/07/21 01:04:26;;;;;;;2.45;2.20;;;24.10;71.40;;;;;;5053763;28;20056;-63
2022/07/21 01:06:53;;;;;;;2.97;2.40;;;24.10;71.50;;;;;;5050638;28;20037;-69
2022/07/21 01:09:20;;;;;;;3.33;2.55;;;24.10;71.60;;;;;;5049724;28;20035;-70
2022/07/21 01:11:46;;;;;;;3.05;2.47;;;24.10;71.40;;;;;;5048541;28;20041;-70
2022/07/21 01:14:12;;;;;;;2.10;1.90;;;24.10;71.40;;;;;;5049531;28;20479;-70
2022/07/21 01:16:38;;;;;;;3.88;2.80;;;24.10;71.60;;;;;;5031052;28;20039;-69
2022/07/21 01:19:05;;;;;;;3.83;2.72;;;24.10;71.70;;;;;;5052087;28;20041;-69
2022/07/21 01:21:35;;;;;;;3.50;2.75;;;24.10;71.80;;;;;;5051878;28;20110;-70
2022/07/21 01:24:01;;;;;;;3.38;3.05;;;23.90;71.30;;;;;;5040631;28;20036;-69
2022/07/21 01:26:28;;;;;;;3.28;2.70;;;23.90;71.70;;;;;;5053970;28;20044;-63
2022/07/21 01:28:55;;;;;;;4.22;2.95;;;23.90;71.80;;;;;;5049348;28;20029;-63
2022/07/21 01:31:21;;;;;;;3.38;2.53;;;23.80;71.80;;;;;;5040067;28;20085;-63
2022/07/21 01:33:48;;;;;;;4.43;2.58;;;23.80;71.80;;;;;;5053298;28;20025;-63
2022/07/21 01:36:13;;;;;;;4.38;3.08;;;23.80;71.80;;;;;;5055966;28;20350;-63
2022/07/21 01:41:29;;;;;;;4.10;2.85;;;23.70;72.20;;;;;;5054829;28;20520;-69
2022/07/21 01:43:56;;;;;;;3.93;3.47;;;23.70;72.20;;;;;;5049804;28;20480;-63
2022/07/21 01:46:22;;;;;;;2.67;2.35;;;23.70;72.20;;;;;;5045820;28;20280;-64
2022/07/21 01:48:48;;;;;;;3.90;3.28;;;23.60;72.10;;;;;;5046361;28;20087;-64
2022/07/21 01:51:13;;;;;;;3.67;2.80;;;23.50;72.10;;;;;;5053394;28;20061;-64
2022/07/21 01:53:39;;;;;;;3.00;2.72;;;23.50;72.30;;;;;;5048964;28;20108;-63
2022/07/21 01:56:06;;;;;;;7.45;3.42;;;23.40;72.50;;;;;;5054737;28;20032;-64
2022/07/21 01:58:33;;;;;;;3.33;2.78;;;23.40;72.60;;;;;;5044633;28;20457;-70
2022/07/21 02:00:59;;;;;;;3.70;2.30;;;23.40;72.50;;;;;;5051369;28;20024;-69
2022/07/21 02:03:24;;;;;;;2.95;2.65;;;23.40;72.50;;;;;;5048654;28;20036;-68
2022/07/21 02:05:50;;;;;;;4.38;2.65;;;23.40;72.50;;;;;;5053387;28;20407;-69
2022/07/21 02:08:16;;;;;;;3.72;2.80;;;23.40;72.50;;;;;;5049759;28;20025;-69
2022/07/21 02:10:41;;;;;;;3.75;2.50;;;23.40;72.60;;;;;;5049780;28;20076;-69
2022/07/21 02:13:07;;;;;;;3.30;2.65;;;23.50;72.70;;;;;;5049842;28;20032;-69
2022/07/21 02:15:33;;;;;;;5.50;3.75;;;23.50;72.80;;;;;;5043907;28;20033;-69
2022/07/21 02:17:59;;;;;;;4.13;2.72;;;23.40;72.70;;;;;;5051259;28;20025;-69
2022/07/21 02:20:26;;;;;;;4.13;3.25;;;23.40;72.80;;;;;;5046551;28;20029;-68
2022/07/21 02:22:52;;;;;;;2.50;2.30;;;23.40;72.90;;;;;;5049557;28;20025;-68
2022/07/21 02:25:18;;;;;;;3.75;3.35;;;23.40;72.80;;;;;;5048340;28;20094;-69
2022/07/21 02:27:46;;;;;;;4.00;2.70;;;23.40;72.90;;;;;;5050761;28;20523;-68
2022/07/21 02:30:12;;;;;;;3.90;3.15;;;23.40;72.90;;;;;;5041451;28;20132;-69
2022/07/21 02:32:38;;;;;;;4.13;3.35;;;23.40;73.00;;;;;;5052813;28;20388;-69
2022/07/21 02:35:04;;;;;;;4.88;3.13;;;23.40;73.00;;;;;;5052198;28;20028;-68
2022/07/21 02:37:30;;;;;;;4.22;2.75;;;23.40;73.10;;;;;;5049483;28;20036;-68
2022/07/21 02:39:56;;;;;;;4.28;2.33;;;23.30;73.10;;;;;;5054440;28;20032;-68
2022/07/21 02:42:22;;;;;;;3.83;3.42;;;23.30;73.20;;;;;;5059228;28;20041;-69
2022/07/21 02:44:47;;;;;;;4.88;3.65;;;23.30;73.30;;;;;;5059548;28;20033;-69
2022/07/21 02:47:13;;;;;;;5.78;3.88;;;23.30;73.30;;;;;;5058991;28;20033;-68
2022/07/21 02:49:39;;;;;;;4.63;3.55;;;23.20;73.30;;;;;;5062684;28;20037;-68
2022/07/21 02:52:05;;;;;;;4.03;3.10;;;23.20;73.40;;;;;;5051398;28;20059;-68
2022/07/21 02:54:30;;;;;;;3.67;3.35;;;23.20;73.30;;;;;;5053124;28;20496;-69
2022/07/21 02:56:56;;;;;;;4.90;3.70;;;23.20;73.10;;;;;;5074467;28;20048;-68
2022/07/21 02:59:22;;;;;;;9.18;3.75;;;23.30;73.20;;;;;;5063758;28;20031;-69
2022/07/21 03:01:48;;;;;;;6.82;3.83;;;23.20;73.10;;;;;;5048484;28;20087;-69
2022/07/21 03:04:13;;;;;;;4.38;3.08;;;23.20;73.30;;;;;;5040513;28;20059;-69
2022/07/21 03:06:40;;;;;;;3.88;2.83;;;23.20;73.40;;;;;;5034984;28;20040;-63
2022/07/21 03:09:06;;;;;;;4.25;3.75;;;23.20;73.40;;;;;;5044122;28;20518;-63
2022/07/21 03:11:31;;;;;;;5.00;3.67;;;23.20;73.30;;;;;;5043359;28;20056;-63
2022/07/21 03:13:57;;;;;;;6.03;3.25;;;23.20;73.30;;;;;;5039950;28;20045;-63
2022/07/21 03:16:23;;;;;;;10.23;2.97;;;23.20;73.20;;;;;;5037308;28;20032;-63
2022/07/21 03:18:48;;;;;;;5.32;3.70;;;23.20;73.30;;;;;;5040581;28;20057;-63
2022/07/21 03:21:14;;;;;;;5.78;3.92;;;23.30;73.20;;;;;;5042375;28;20063;-63
2022/07/21 03:23:45;;;;;;;4.95;3.60;;;23.20;73.30;;;;;;5043088;28;20034;-63
2022/07/21 03:26:14;;;;;;;6.30;4.75;;;23.10;73.50;;;;;;5043085;28;20036;-63
2022/07/21 03:28:41;;;;;;;5.63;3.78;;;23.10;73.70;;;;;;5034508;28;20025;-63
2022/07/21 03:31:07;;;;;;;8.68;4.80;;;23.00;73.90;;;;;;5044754;28;20112;-63
2022/07/21 03:33:33;;;;;;;4.45;3.63;;;23.00;73.90;;;;;;5035803;28;20599;-62
2022/07/21 03:35:59;;;;;;;7.00;4.30;;;23.00;73.60;;;;;;5038224;28;20491;-62
2022/07/21 03:38:25;;;;;;;6.03;4.47;;;23.10;73.70;;;;;;5038934;28;20028;-63
2022/07/21 03:40:50;;;;;;;5.53;3.85;;;23.10;73.70;;;;;;5060313;28;20025;-63
2022/07/21 03:43:16;;;;;;;7.78;4.45;;;23.00;73.80;;;;;;5045805;28;20508;-63
2022/07/21 03:45:42;;;;;;;5.63;3.78;;;22.90;73.90;;;;;;5037505;28;20492;-62
2022/07/21 03:48:09;;;;;;;5.65;4.43;;;22.90;73.80;;;;;;5028327;28;20116;-63
2022/07/21 03:50:36;;;;;;;6.00;4.65;;;22.80;74.00;;;;;;5040763;28;20561;-69
2022/07/21 03:53:02;;;;;;;4.55;3.85;;;22.80;74.30;;;;;;5040790;28;20056;-69
2022/07/21 03:55:29;;;;;;;4.05;2.95;;;22.70;74.30;;;;;;5055919;28;20052;-69
2022/07/21 03:58:01;;;;;;;5.75;4.03;;;22.70;74.20;;;;;;5032893;28;20057;-69
2022/07/21 04:00:34;;;;;;;7.35;4.82;;;22.70;74.30;;;;;;5040031;28;20051;-69
2022/07/21 04:03:01;;;;;;;4.38;3.97;;;22.70;74.50;;;;;;5050540;28;20422;-63
2022/07/21 04:05:28;;;;;;;5.25;3.45;;;22.60;74.80;;;;;;5053083;28;20064;-62
2022/07/21 04:07:54;;;;;;;4.60;3.42;;;22.50;74.80;;;;;;5046785;28;20082;-68
2022/07/21 04:10:24;;;;;;;5.65;4.10;;;22.50;74.70;;;;;;5040550;28;20030;-69
2022/07/21 04:12:50;;;;;;;5.82;4.32;;;22.50;74.80;;;;;;5040594;28;20423;-69
2022/07/21 04:15:17;;;;;;;5.25;3.85;;;22.50;74.90;;;;;;5049030;28;20030;-68
2022/07/21 04:17:43;;;;;;;7.30;4.30;;;22.50;75.10;;;;;;5039910;28;20032;-68
2022/07/21 04:20:10;;;;;;;5.55;4.15;;;22.50;75.70;;;;;;5040779;28;20125;-68
2022/07/21 04:22:36;;;;;;;9.60;4.60;;;22.50;75.30;;;;;;5041666;28;20036;-69
2022/07/21 04:25:03;;;;;;;6.85;5.20;;;22.50;75.00;;;;;;5061025;28;20056;-68
2022/07/21 04:27:30;;;;;;;5.82;4.20;;;22.50;75.10;;;;;;5053482;28;20036;-69
2022/07/21 04:29:56;;;;;;;7.90;4.13;;;22.50;75.00;;;;;;5054518;28;20120;-68
2022/07/21 04:32:22;;;;;;;7.18;4.07;;;22.50;75.30;;;;;;5051408;28;20059;-68
2022/07/21 04:34:47;;;;;;;5.40;3.25;;;22.50;75.30;;;;;;5051044;28;20481;-68
2022/07/21 04:37:13;;;;;;;7.50;4.22;;;22.50;75.30;;;;;;5055938;28;20064;-68
2022/07/21 04:39:39;;;;;;;5.15;4.63;;;22.60;75.30;;;;;;5065304;28;20029;-69
2022/07/21 04:42:05;;;;;;;5.50;4.15;;;22.50;75.30;;;;;;5057854;28;20132;-68
2022/07/21 04:44:31;;;;;;;5.07;4.10;;;22.50;75.50;;;;;;5066285;28;20033;-69
2022/07/21 04:46:57;;;;;;;9.77;4.30;;;22.50;75.60;;;;;;5058309;28;20047;-69
2022/07/21 04:49:23;;;;;;;7.35;4.38;;;22.50;75.70;;;;;;5058646;28;20037;-69
2022/07/21 04:51:48;;;;;;;8.50;5.45;;;22.50;75.60;;;;;;5053600;28;20427;-69
2022/07/21 04:54:14;;;;;;;7.13;4.93;;;22.50;75.60;;;;;;5068194;28;20036;-69
2022/07/21 04:56:41;;;;;;;7.28;4.85;;;22.40;75.50;;;;;;5056248;28;20709;-69
2022/07/21 04:59:07;;;;;;;7.95;5.43;;;22.50;75.50;;;;;;5069107;28;20028;-68
2022/07/21 05:01:33;;;;;;;10.77;6.40;;;22.50;75.40;;;;;;5055173;28;20131;-68
2022/07/21 05:03:59;;;;;;;5.05;3.97;;;22.40;75.40;;;;;;5052644;28;20751;-69
2022/07/21 05:06:25;;;;;;;6.25;5.10;;;22.30;75.60;;;;;;5044920;28;20052;-68
2022/07/21 05:08:51;;;;;;;6.32;3.70;;;22.30;75.70;;;;;;5051189;28;20029;-68
2022/07/21 05:11:17;;;;;;;7.80;5.75;;;22.40;75.70;;;;;;5051255;28;20089;-68
2022/07/21 05:13:43;;;;;;;7.28;4.93;;;22.40;75.60;;;;;;5051801;28;20451;-68
2022/07/21 05:16:08;;;;;;;5.13;3.75;;;22.50;75.50;;;;;;5053403;28;20033;-69
2022/07/21 05:18:34;;;;;;;7.20;4.95;;;22.50;75.50;;;;;;5047214;28;20029;-68
2022/07/21 05:21:00;;;;;;;7.68;5.28;;;22.60;75.50;;;;;;5053414;28;20104;-69
2022/07/21 05:23:25;;;;;;;10.38;5.13;;;22.60;75.40;;;;;;5035526;28;20428;-68
2022/07/21 05:25:51;;;;;;;10.27;6.13;;;22.50;76.10;;;;;;5048867;28;20066;-68
2022/07/21 05:28:17;;;;;;;7.40;5.38;;;22.50;75.80;;;;;;5054479;28;20037;-68
2022/07/21 05:30:42;;;;;;;8.88;5.57;;;22.50;75.80;;;;;;5052399;28;20060;-68
2022/07/21 05:33:08;;;;;;;8.88;5.85;;;22.50;76.00;;;;;;5058265;28;20037;-68
2022/07/21 05:35:34;;;;;;;5.65;4.80;;;22.50;75.90;;;;;;5057275;28;20060;-68
2022/07/21 05:38:00;;;;;;;9.13;5.40;;;22.50;75.90;;;;;;5060700;28;20192;-68
2022/07/21 05:40:25;;;;;;;9.32;5.82;;;22.50;76.10;;;;;;5055997;28;20083;-68
2022/07/21 05:42:51;;;;;;;9.50;4.90;;;22.50;76.00;;;;;;5057626;28;20152;-68
2022/07/21 05:45:17;;;;;;;7.05;4.43;;;22.50;76.00;;;;;;5057230;28;20028;-68
2022/07/21 05:47:43;;;;;;;12.15;6.55;;;22.50;76.10;;;;;;5060022;28;20033;-68
2022/07/21 05:50:10;;;;;;;9.35;6.32;;;22.40;76.20;;;;;;5061002;28;20048;-68
2022/07/21 05:52:35;;;;;;;10.18;7.43;;;22.30;76.40;;;;;;5062148;28;20036;-68
2022/07/21 05:55:01;;;;;;;13.23;7.57;;;22.20;76.50;;;;;;5060777;28;20112;-69
2022/07/21 05:57:27;;;;;;;6.72;5.70;;;22.20;76.60;;;;;;5064974;28;20835;-68
2022/07/21 05:59:53;;;;;;;8.45;5.38;;;22.20;76.60;;;;;;5060506;28;20066;-69
2022/07/21 06:02:18;;;;;;;9.02;6.90;;;22.20;76.80;;;;;;5060501;28;20036;-68
2022/07/21 06:04:44;;;;;;;8.20;5.95;;;22.20;76.80;;;;;;5059547;28;20049;-68
2022/07/21 06:07:10;;;;;;;9.75;6.90;;;22.10;76.50;;;;;;5049024;28;20029;-68
2022/07/21 06:09:35;;;;;;;11.80;6.90;;;22.10;76.70;;;;;;5050606;28;20021;-68
2022/07/21 06:12:01;;;;;;;10.57;7.88;;;22.10;76.70;;;;;;5047853;28;20423;-68
2022/07/21 06:14:27;;;;;;;10.77;7.38;;;22.00;76.70;;;;;;5047231;28;20064;-68
2022/07/21 06:16:52;;;;;;;8.45;6.50;;;22.00;76.90;;;;;;5048421;28;20418;-63
2022/07/21 06:19:18;;;;;;;11.35;6.70;;;22.00;76.80;;;;;;5052005;28;20032;-63
2022/07/21 06:21:44;;;;;;;17.50;6.82;;;22.00;76.80;;;;;;5048571;28;20037;-68
2022/07/21 06:24:10;;;;;;;12.13;6.15;;;22.00;76.60;;;;;;5051893;28;20041;-68
2022/07/21 06:26:36;;;;;;;13.70;7.53;;;22.00;76.60;;;;;;5049407;28;20044;-68
2022/07/21 06:29:02;;;;;;;8.82;5.78;;;22.00;76.60;;;;;;5047575;28;20404;-68
2022/07/21 06:31:28;;;;;;;7.72;5.60;;;22.00;76.50;;;;;;5057101;28;20040;-68
2022/07/21 06:33:53;;;;;;;9.00;6.43;;;22.00;76.40;;;;;;5054926;28;20047;-68
2022/07/21 06:36:19;;;;;;;6.30;5.15;;;22.10;76.40;;;;;;5054260;28;20039;-68
2022/07/21 06:38:45;;;;;;;9.68;6.53;;;22.10;76.10;;;;;;5050723;28;20028;-69
2022/07/21 06:41:11;;;;;;;8.30;6.28;;;22.20;76.30;;;;;;5049852;28;20104;-68
2022/07/21 06:43:37;;;;;;;7.05;5.40;;;22.20;76.10;;;;;;5052629;28;20484;-70
2022/07/21 06:46:03;;;;;;;9.93;5.80;;;22.30;75.90;;;;;;5060610;28;20403;-63
2022/07/21 06:48:29;;;;;;;9.98;6.80;;;22.40;75.80;;;;;;5051037;28;20048;-63
2022/07/21 06:50:55;;;;;;;7.50;5.82;;;22.50;75.10;;;;;;5046763;28;20438;-70
2022/07/21 06:53:21;;;;;;;11.00;6.72;;;22.50;75.00;;;;;;5052412;28;20025;-63
2022/07/21 06:55:51;;;;;;;9.70;5.63;;;22.60;74.90;;;;;;5058630;28;20068;-63
2022/07/21 06:58:21;;;;;;;7.50;5.90;;;22.60;74.70;;;;;;5063365;28;20074;-63
2022/07/21 07:00:48;;;;;;;9.20;6.32;;;22.60;74.60;;;;;;5050900;28;20543;-63
2022/07/21 07:03:14;;;;;;;6.28;5.15;;;22.70;74.60;;;;;;5051609;28;20271;-63
2022/07/21 07:05:41;;;;;;;7.75;5.43;;;22.70;74.50;;;;;;5041558;28;20480;-63
2022/07/21 07:08:07;;;;;;;7.38;5.68;;;22.80;74.60;;;;;;5048190;28;20029;-70
2022/07/21 07:10:33;;;;;;;11.70;6.65;;;22.90;74.60;;;;;;5048040;28;20036;-71
2022/07/21 07:12:59;;;;;;;9.10;6.10;;;22.90;74.10;;;;;;5055835;28;20032;-70
2022/07/21 07:15:25;;;;;;;10.80;5.65;;;22.90;73.70;;;;;;5052506;28;20059;-70
2022/07/21 07:17:51;;;;;;;7.38;5.78;;;22.90;73.90;;;;;;5052274;28;20022;-71
2022/07/21 07:20:17;;;;;;;8.73;6.38;;;22.80;73.70;;;;;;5046140;28;20034;-63
2022/07/21 07:22:43;;;;;;;8.23;5.90;;;22.80;73.70;;;;;;5058717;28;20221;-63
2022/07/21 07:25:09;;;;;;;10.25;6.28;;;22.70;73.80;;;;;;5052513;28;20068;-70
2022/07/21 07:27:35;;;;;;;9.45;6.75;;;22.70;73.90;;;;;;5032716;28;20047;-71
2022/07/21 07:30:01;;;;;;;11.25;6.90;;;22.60;74.30;;;;;;5053580;28;20575;-70
2022/07/21 07:32:27;;;;;;;10.60;6.05;;;22.60;74.60;;;;;;5059799;28;20063;-71
2022/07/21 07:34:52;;;;;;;7.32;5.82;;;22.60;74.30;;;;;;5053606;28;20037;-69
2022/07/21 07:37:18;;;;;;;6.60;4.85;;;22.60;74.50;;;;;;5053046;28;20033;-70
2022/07/21 07:39:44;;;;;;;14.05;6.82;;;22.60;74.20;;;;;;5070331;28;20099;-62
2022/07/21 07:42:09;;;;;;;10.52;6.55;;;22.60;74.40;;;;;;5059402;28;20442;-62
2022/07/21 07:44:35;;;;;;;9.02;5.82;;;22.70;74.50;;;;;;5057924;28;20071;-63
2022/07/21 07:47:04;;;;;;;6.78;5.40;;;22.70;74.30;;;;;;5049006;28;20052;-67
2022/07/21 07:49:30;;;;;;;8.05;6.25;;;22.70;74.20;;;;;;5048948;28;20041;-68
2022/07/21 07:51:57;;;;;;;6.60;4.72;;;22.70;74.30;;;;;;5051653;28;20032;-68
2022/07/21 07:54:23;;;;;;;7.80;5.22;;;22.70;74.10;;;;;;5052046;28;20392;-67
2022/07/21 07:56:48;;;;;;;7.53;4.47;;;22.70;74.20;;;;;;5053603;28;20024;-68
2022/07/21 07:59:14;;;;;;;8.65;5.85;;;22.70;74.20;;;;;;5050007;28;20025;-68
2022/07/21 08:01:40;;;;;;;8.10;5.18;;;22.70;74.20;;;;;;5041368;28;20029;-68
2022/07/21 08:04:06;;;;;;;11.88;5.97;;;22.70;74.10;;;;;;5038643;28;20041;-68
2022/07/21 08:06:32;;;;;;;8.68;5.10;;;22.90;74.10;;;;;;5039420;28;20036;-68
2022/07/21 08:08:58;;;;;;;6.68;5.78;;;22.90;73.70;;;;;;5051487;28;20452;-68
2022/07/21 08:11:24;;;;;;;9.30;6.45;;;22.90;73.90;;;;;;5044835;28;20067;-62
2022/07/21 08:13:50;;;;;;;8.55;5.25;;;22.90;73.60;;;;;;5052516;28;20384;-63
2022/07/21 08:16:15;;;;;;;9.00;6.28;;;22.90;73.20;;;;;;5048501;28;20028;-63
2022/07/21 08:18:42;;;;;;;9.32;6.35;;;22.80;72.90;;;;;;5033112;28;20029;-63
2022/07/21 08:21:08;;;;;;;9.45;6.10;;;22.80;73.30;;;;;;5044736;28;20513;-63
2022/07/21 08:23:34;;;;;;;10.07;5.70;;;22.70;73.30;;;;;;5067840;28;20029;-64
2022/07/21 08:25:59;;;;;;;12.15;6.10;;;22.70;73.50;;;;;;5048453;28;20447;-63
2022/07/21 08:28:25;;;;;;;9.52;6.32;;;22.60;73.60;;;;;;5048965;28;20040;-64
2022/07/21 08:30:51;;;;;;;6.97;5.53;;;22.70;73.70;;;;;;5040780;28;20033;-63
2022/07/21 08:33:17;;;;;;;8.40;5.45;;;22.70;73.60;;;;;;5050314;28;20040;-63
2022/07/21 08:35:43;;;;;;;8.00;6.20;;;22.60;73.40;;;;;;5047682;28;20471;-64
2022/07/21 08:38:11;;;;;;;7.70;5.32;;;22.70;73.40;;;;;;5042548;28;20481;-63
2022/07/21 08:40:43;;;;;;;6.05;4.75;;;22.80;73.10;;;;;;5053048;28;20127;-63
2022/07/21 08:43:09;;;;;;;8.32;5.50;;;23.00;73.20;;;;;;5046209;28;20018;-63
2022/07/21 08:45:37;;;;;;;11.77;5.80;;;23.10;72.90;;;;;;5047253;28;20120;-63
2022/07/21 08:48:03;;;;;;;10.35;5.10;;;23.10;72.80;;;;;;5061776;28;20029;-63
2022/07/21 08:50:32;;;;;;;9.13;4.85;;;23.10;72.80;;;;;;5049489;28;20047;-63
2022/07/21 08:52:58;;;;;;;7.88;5.07;;;23.20;72.90;;;;;;5064410;28;20117;-63
2022/07/21 08:55:24;;;;;;;10.07;5.57;;;23.10;72.80;;;;;;5045377;28;20576;-64
2022/07/21 08:57:50;;;;;;;10.55;5.13;;;23.10;72.80;;;;;;5052833;28;20040;-63
2022/07/21 09:00:16;;;;;;;7.40;5.25;;;23.10;73.20;;;;;;5039061;28;20033;-64
2022/07/21 09:02:42;;;;;;;8.90;5.20;;;23.00;73.20;;;;;;5046919;28;20028;-64
2022/07/21 09:05:09;;;;;;;9.82;5.50;;;23.00;73.00;;;;;;5045538;28;20416;-64
2022/07/21 09:07:55;;;;;;;11.80;6.72;;;22.90;73.10;;;;;;5050090;28;20395;-64
2022/07/21 09:10:23;;;;;;;7.28;5.53;;;22.90;73.30;;;;;;5032932;28;20025;-64
2022/07/21 09:12:57;;;;;;;7.78;5.32;;;22.90;73.30;;;;;;5048193;28;20039;-64
2022/07/21 09:15:26;;;;;;;7.03;5.10;;;22.90;73.60;;;;;;5045569;28;20040;-63
2022/07/21 09:18:13;;;;;;;5.65;4.10;;;22.80;73.70;;;;;;5047616;28;20631;-64
2022/07/21 09:20:50;;;;;;;7.15;4.28;;;22.70;74.00;;;;;;5051533;28;20025;-63
2022/07/21 09:23:18;;;;;;;6.03;4.45;;;22.70;74.00;;;;;;5036606;28;20464;-63
2022/07/21 09:25:49;;;;;;;8.30;5.95;;;22.70;74.20;;;;;;5047643;28;20058;-63
2022/07/21 09:28:20;;;;;;;6.63;4.72;;;22.70;74.20;;;;;;5048087;28;20532;-63
2022/07/21 09:30:54;;;;;;;9.10;5.43;;;22.60;74.10;;;;;;5043261;28;20482;-69
2022/07/21 09:33:26;;;;;;;9.23;5.22;;;22.60;74.40;;;;;;5059130;28;20108;-69
2022/07/21 09:35:58;;;;;;;6.82;3.75;;;22.50;74.70;;;;;;5042089;28;20044;-68
2022/07/21 09:38:25;;;;;;;4.07;2.80;;;22.40;74.80;;;;;;5044536;28;20452;-68
2022/07/21 09:40:51;;;;;;;7.82;3.58;;;22.40;74.70;;;;;;5040337;28;20017;-63
2022/07/21 09:43:29;;;;;;;4.88;2.97;;;22.40;74.70;;;;;;5044403;28;20464;-63
2022/07/21 09:45:55;;;;;;;4.05;2.42;;;22.40;74.70;;;;;;5047414;28;20561;-68
2022/07/21 09:48:34;;;;;;;2.92;2.58;;;22.40;74.90;;;;;;5034971;28;20032;-68
2022/07/21 09:51:22;;;;;;;2.60;2.28;;;22.30;74.90;;;;;;5035996;28;20415;-68
2022/07/21 09:54:07;;;;;;;3.28;2.05;;;22.30;75.20;;;;;;5046754;28;20029;-62
2022/07/21 09:56:37;;;;;;;2.50;1.73;;;22.30;75.60;;;;;;5041846;28;20036;-62
2022/07/21 09:59:06;;;;;;;3.33;1.98;;;22.20;75.80;;;;;;5047176;28;20036;-62
2022/07/21 10:01:32;;;;;;;4.10;1.95;;;22.20;76.00;;;;;;5045294;28;20550;-62
2022/07/21 10:03:59;;;;;;;2.08;1.60;;;22.20;76.30;;;;;;5040603;28;20127;-62
2022/07/21 10:06:35;;;;;;;3.47;2.08;;;22.20;76.60;;;;;;5037519;28;20134;-62
2022/07/21 10:09:03;;;;;;;2.50;1.73;;;22.10;77.00;;;;;;5041037;28;20048;-66
2022/07/21 10:11:29;;;;;;;1.85;1.60;;;22.00;77.30;;;;;;5038806;28;20090;-67
2022/07/21 10:13:55;;;;;;;3.25;1.73;;;22.10;77.50;;;;;;5042105;28;20104;-67
2022/07/21 10:16:22;;;;;;;1.40;1.30;;;22.10;77.50;;;;;;5036613;28;20022;-62
2022/07/21 10:19:15;;;;;;;1.42;1.33;;;22.20;77.70;;;;;;5042802;28;20507;-66
2022/07/21 10:22:08;;;;;;;3.75;1.77;;;22.20;77.40;;;;;;5045357;28;20048;-66
2022/07/21 10:24:34;;;;;;;2.58;1.48;;;22.30;77.50;;;;;;5041417;28;20065;-66
2022/07/21 10:27:07;;;;;;;3.25;1.52;;;22.30;77.60;;;;;;5047976;28;20033;-67
2022/07/21 10:29:58;;;;;;;1.73;1.60;;;22.30;77.70;;;;;;5040953;28;20053;-67
2022/07/21 10:32:50;;;;;;;1.50;1.10;;;22.30;77.90;;;;;;5037915;28;20471;-66
2022/07/21 10:35:28;;;;;;;1.98;1.38;;;22.30;78.00;;;;;;5034615;28;20057;-66
2022/07/21 10:37:54;;;;;;;1.70;1.58;;;22.20;78.10;;;;;;5055471;28;20100;-66
2022/07/21 10:40:20;;;;;;;1.65;1.15;;;22.10;78.70;;;;;;5045082;28;20451;-66
2022/07/21 10:42:58;;;;;;;1.58;1.42;;;22.00;79.10;;;;;;5039539;28;20029;-67
2022/07/21 10:45:30;;;;;;;2.30;1.83;;;22.00;79.40;;;;;;5030076;28;20089;-62
2022/07/21 10:47:56;;;;;;;1.92;1.38;;;22.00;79.50;;;;;;5041191;28;20034;-66
2022/07/21 10:50:37;;;;;;;1.67;1.45;;;22.00;79.60;;;;;;5056519;28;20064;-67
2022/07/21 10:53:05;;;;;;;1.40;1.30;;;22.10;79.50;;;;;;5042632;28;20025;-66
2022/07/21 10:55:37;;;;;;;1.67;1.58;;;22.10;79.60;;;;;;5039239;28;20048;-66
2022/07/21 10:58:12;;;;;;;;;;;22.10;79.70;;;;;;5033080;28;20024;-62
2022/07/21 11:00:50;;;;;;;2.30;2.10;;;22.10;79.60;;;;;;5043591;28;19920;-63
2022/07/21 11:03:26;;;;;;;2.63;1.40;;;22.10;79.70;;;;;;5040877;28;20107;-63
2022/07/21 11:06:18;;;;;;;2.90;1.77;;;22.10;79.60;;;;;;5043283;28;20036;-62
2022/07/21 11:09:04;;;;;;;1.27;1.17;;;22.10;79.50;;;;;;5036531;28;20159;-62
2022/07/21 11:11:33;;;;;;;1.67;1.58;;;22.10;79.50;;;;;;5039706;28;20049;-62
2022/07/21 11:14:06;;;;;;;1.50;1.20;;;22.10;79.60;;;;;;5039911;28;20029;-62
2022/07/21 11:19:34;;;;;;;2.03;1.45;;;21.90;79.20;;;;;;5041811;28;20032;-62
2022/07/21 11:22:14;;;;;;;1.50;1.40;;;21.80;79.30;;;;;;5035730;28;20033;-67
2022/07/21 11:24:41;;;;;;;0.90;0.90;;;21.80;79.30;;;;;;5037520;28;20044;-62
2022/07/21 11:27:08;;;;;;;0.98;0.98;;;21.80;79.10;;;;;;5034179;28;20526;-67
2022/07/21 11:29:36;;;;;;;0.82;0.82;;;21.80;79.20;;;;;;5044030;28;20044;-66
2022/07/21 11:32:03;;;;;;;1.50;0.98;;;21.90;79.10;;;;;;5036953;28;20140;-67
2022/07/21 11:34:50;;;;;;;2.88;1.40;;;21.90;79.20;;;;;;5052068;28;20032;-67
2022/07/21 11:37:26;;;;;;;1.40;1.02;;;21.90;79.10;;;;;;5041554;28;20029;-66
2022/07/21 11:39:51;;;;;;;1.48;1.38;;;21.90;79.30;;;;;;5035181;28;20032;-67
2022/07/21 11:42:17;;;;;;;1.25;1.15;;;22.00;79.30;;;;;;5043900;28;20033;-67
2022/07/21 11:44:44;;;;;;;2.33;1.30;;;22.10;79.30;;;;;;5047081;28;20037;-67
2022/07/21 11:47:16;;;;;;;2.58;1.30;;;22.10;79.30;;;;;;5044401;28;20057;-67
2022/07/21 11:49:43;;;;;;;2.25;1.85;;;22.10;79.20;;;;;;5044637;28;20374;-67
2022/07/21 11:52:11;;;;;;;2.20;0.82;;;22.20;79.30;;;;;;5050019;28;20510;-67
2022/07/21 11:54:45;;;;;;;1.40;1.30;;;22.20;78.90;;;;;;5046328;28;20025;-66
2022/07/21 11:57:11;;;;;;;1.67;1.55;;;22.20;78.80;;;;;;5036588;28;20025;-66
2022/07/21 11:59:40;;;;;;;1.38;1.20;;;22.10;79.00;;;;;;5036443;28;20497;-67
2022/07/21 12:02:11;;;;;;;1.85;1.25;;;22.20;79.10;;;;;;5039015;28;20044;-61
2022/07/21 12:04:46;;;;;;;1.47;1.33;;;22.20;78.90;;;;;;5041868;28;20114;-62
2022/07/21 12:07:14;;;;;;;3.55;1.58;;;22.10;79.00;;;;;;5042347;28;20040;-62
2022/07/21 12:09:41;;;;;;;1.20;1.10;;;22.00;79.10;;;;;;5046391;28;20033;-63
2022/07/21 12:12:07;;;;;;;1.65;1.30;;;22.00;79.20;;;;;;5041125;28;20034;-62
2022/07/21 12:14:45;;;;;;;1.98;1.48;;;22.00;79.20;;;;;;5041601;28;20045;-62
2022/07/21 12:17:11;;;;;;;2.15;2.00;;;22.10;79.10;;;;;;5056128;28;20030;-63
2022/07/21 12:19:37;;;;;;;1.83;1.63;;;22.10;79.20;;;;;;5046379;28;20025;-67
2022/07/21 12:22:03;;;;;;;1.65;1.55;;;22.10;79.10;;;;;;5041414;28;20040;-67
2022/07/21 12:24:53;;;;;;;4.88;3.17;;;22.10;78.90;;;;;;5035768;28;20037;-67
2022/07/21 12:27:19;;;;;;;2.10;1.77;;;22.30;78.90;;;;;;5045178;28;20032;-67
2022/07/21 12:29:45;;;;;;;12.38;2.67;;;22.30;78.60;;;;;;5041225;28;20025;-68
2022/07/21 12:32:12;;;;;;;2.03;1.88;;;22.20;78.30;;;;;;5036936;28;20041;-67
2022/07/21 12:34:52;;;;;;;2.08;1.80;;;22.10;78.40;;;;;;5037940;28;20079;-67
2022/07/21 12:37:18;;;;;;;2.78;2.08;;;22.10;78.50;;;;;;5065649;28;20031;-63
2022/07/21 12:39:59;;;;;;;2.15;1.70;;;22.10;78.50;;;;;;5045764;28;20037;-63
2022/07/21 12:42:35;;;;;;;2.10;1.52;;;22.10;78.40;;;;;;5040315;28;20041;-63
2022/07/21 12:45:16;;;;;;;1.60;1.50;;;22.10;78.20;;;;;;5041770;28;20056;-63
2022/07/21 12:47:42;;;;;;;5.00;2.15;;;22.10;78.20;;;;;;5037389;28;20116;-63
2022/07/21 12:50:13;;;;;;;2.13;1.70;;;22.00;78.30;;;;;;5057623;28;20504;-64
2022/07/21 12:52:39;;;;;;;1.58;1.40;;;22.10;78.30;;;;;;5048989;28;20029;-63
2022/07/21 12:55:06;;;;;;;3.40;2.25;;;22.10;78.30;;;;;;5039247;28;20049;-63